sensor_id;sensor_type;location;lat;lon;timestamp;pressure;altitude;pressure_sealevel;temperature;humidity
62164;BME280;48149;51.132;7.178;2023-08-08T00:02:11;98599.06;;;33.70;nan
62164;BME280;48149;51.132;7.178;2023-08-08T00:04:37;98600.50;;;33.60;nan
62164;BME280;48149;51.132;7.178;2023-08-08T00:07:02;98597.78;;;34.79;nan
62164;BME280;48149;51.132;7.178;2023-08-08T00:09:28;98596.50;;;34.37;nan
62164;BME280;48149;51.132;7.178;2023-08-08T00:11:53;98603.97;;;34.43;nan
62164;BME280;48149;51.132;7.178;2023-08-08T00:14:18;98596.69;;;33.42;nan
62164;BME280;48149;51.132;7.178;2023-08-08T00:16:44;98591.06;;;34.37;nan
62164;BME280;48149;51.132;7.178;2023-08-08T00:19:09;98592.75;;;34.48;nan
62164;BME280;48149;51.132;7.178;2023-08-08T00:21:35;98585.19;;;32.61;nan
62164;BME280;48149;51.132;7.178;2023-08-08T00:24:00;98578.34;;;32.10;nan
62164;BME280;48149;51.132;7.178;2023-08-08T00:26:25;98585.38;;;33.14;nan
62164;BME280;48149;51.132;7.178;2023-08-08T00:28:51;98583.34;;;32.27;nan
62164;BME280;48149;51.132;7.178;2023-08-08T00:31:16;98591.03;;;32.44;nan
62164;BME280;48149;51.132;7.178;2023-08-08T00:33:43;98582.88;;;33.05;nan
62164;BME280;48149;51.132;7.178;2023-08-08T00:36:08;98579.84;;;32.88;nan
62164;BME280;48149;51.132;7.178;2023-08-08T00:38:33;98583.06;;;34.17;nan
62164;BME280;48149;51.132;7.178;2023-08-08T00:40:59;98579.69;;;34.27;nan
62164;BME280;48149;51.132;7.178;2023-08-08T00:43:25;98587.13;;;34.04;nan
62164;BME280;48149;51.132;7.178;2023-08-08T00:45:50;98584.44;;;34.67;nan
62164;BME280;48149;51.132;7.178;2023-08-08T00:48:16;98581.88;;;33.36;nan
62164;BME280;48149;51.132;7.178;2023-08-08T00:50:43;98572.38;;;32.58;nan
62164;BME280;48149;51.132;7.178;2023-08-08T00:53:09;98577.22;;;33.89;nan
62164;BME280;48149;51.132;7.178;2023-08-08T00:55:35;98578.50;;;33.20;nan
62164;BME280;48149;51.132;7.178;2023-08-08T00:58:01;98573.69;;;33.10;nan
62164;BME280;48149;51.132;7.178;2023-08-08T01:00:26;98580.25;;;32.48;nan
62164;BME280;48149;51.132;7.178;2023-08-08T01:02:51;98579.84;;;32.88;nan
62164;BME280;48149;51.132;7.178;2023-08-08T01:05:17;98581.91;;;31.79;nan
62164;BME280;48149;51.132;7.178;2023-08-08T01:08:02;98574.63;;;32.56;nan
62164;BME280;48149;51.132;7.178;2023-08-08T01:10:35;98578.69;;;34.09;nan
62164;BME280;48149;51.132;7.178;2023-08-08T01:13:05;98569.91;;;32.72;nan
62164;BME280;48149;51.132;7.178;2023-08-08T01:15:32;98585.44;;;32.75;nan
62164;BME280;48149;51.132;7.178;2023-08-08T01:18:03;98580.03;;;32.75;nan
62164;BME280;48149;51.132;7.178;2023-08-08T01:20:29;98578.91;;;32.19;nan
62164;BME280;48149;51.132;7.178;2023-08-08T01:23:23;98581.72;;;33.06;nan
62164;BME280;48149;51.132;7.178;2023-08-08T01:25:51;98578.28;;;32.26;nan
62164;BME280;48149;51.132;7.178;2023-08-08T01:28:21;98576.50;;;32.52;nan
62164;BME280;48149;51.132;7.178;2023-08-08T01:30:47;98575.69;;;32.13;nan
62164;BME280;48149;51.132;7.178;2023-08-08T01:33:12;98569.00;;;31.73;nan
62164;BME280;48149;51.132;7.178;2023-08-08T01:35:38;98569.78;;;31.73;nan
62164;BME280;48149;51.132;7.178;2023-08-08T01:38:31;98569.75;;;33.30;nan
62164;BME280;48149;51.132;7.178;2023-08-08T01:40:59;98561.09;;;30.30;nan
62164;BME280;48149;51.132;7.178;2023-08-08T01:43:25;98559.81;;;33.15;nan
62164;BME280;48149;51.132;7.178;2023-08-08T01:45:52;98557.63;;;32.79;nan
62164;BME280;48149;51.132;7.178;2023-08-08T01:48:17;98556.66;;;32.48;nan
62164;BME280;48149;51.132;7.178;2023-08-08T01:50:43;98554.94;;;32.40;nan
62164;BME280;48149;51.132;7.178;2023-08-08T01:53:09;98555.75;;;31.52;nan
62164;BME280;48149;51.132;7.178;2023-08-08T01:55:34;98564.34;;;32.65;nan
62164;BME280;48149;51.132;7.178;2023-08-08T01:58:00;98568.06;;;31.34;nan
62164;BME280;48149;51.132;7.178;2023-08-08T02:00:25;98565.78;;;32.59;nan
62164;BME280;48149;51.132;7.178;2023-08-08T02:02:51;98569.03;;;32.68;nan
62164;BME280;48149;51.132;7.178;2023-08-08T02:05:16;98556.69;;;31.94;nan
62164;BME280;48149;51.132;7.178;2023-08-08T02:07:41;98556.66;;;32.67;nan
62164;BME280;48149;51.132;7.178;2023-08-08T02:10:07;98558.41;;;30.74;nan
62164;BME280;48149;51.132;7.178;2023-08-08T02:12:32;98552.53;;;31.81;nan
62164;BME280;48149;51.132;7.178;2023-08-08T02:14:58;98543.91;;;31.76;nan
62164;BME280;48149;51.132;7.178;2023-08-08T02:17:24;98550.94;;;31.96;nan
62164;BME280;48149;51.132;7.178;2023-08-08T02:19:50;98550.50;;;31.94;nan
62164;BME280;48149;51.132;7.178;2023-08-08T02:22:16;98543.16;;;32.71;nan
62164;BME280;48149;51.132;7.178;2023-08-08T02:24:42;98534.53;;;31.89;nan
62164;BME280;48149;51.132;7.178;2023-08-08T02:27:07;98538.38;;;31.37;nan
62164;BME280;48149;51.132;7.178;2023-08-08T02:29:32;98528.59;;;34.07;nan
62164;BME280;48149;51.132;7.178;2023-08-08T02:31:58;98525.16;;;33.28;nan
62164;BME280;48149;51.132;7.178;2023-08-08T02:34:23;98532.97;;;31.37;nan
62164;BME280;48149;51.132;7.178;2023-08-08T02:36:49;98529.94;;;32.08;nan
62164;BME280;48149;51.132;7.178;2023-08-08T02:39:14;98528.63;;;32.41;nan
62164;BME280;48149;51.132;7.178;2023-08-08T02:41:39;98526.88;;;30.93;nan
62164;BME280;48149;51.132;7.178;2023-08-08T02:44:06;98519.41;;;31.02;nan
62164;BME280;48149;51.132;7.178;2023-08-08T02:46:31;98520.28;;;32.49;nan
62164;BME280;48149;51.132;7.178;2023-08-08T02:48:57;98525.91;;;32.41;nan
62164;BME280;48149;51.132;7.178;2023-08-08T02:51:22;98528.69;;;32.63;nan
62164;BME280;48149;51.132;7.178;2023-08-08T02:53:47;98519.75;;;31.01;nan
62164;BME280;48149;51.132;7.178;2023-08-08T02:56:13;98514.91;;;31.57;nan
62164;BME280;48149;51.132;7.178;2023-08-08T02:58:38;98512.72;;;31.82;nan
62164;BME280;48149;51.132;7.178;2023-08-08T03:01:03;98509.72;;;32.44;nan
62164;BME280;48149;51.132;7.178;2023-08-08T03:03:29;98503.56;;;31.51;nan
62164;BME280;48149;51.132;7.178;2023-08-08T03:05:54;98499.31;;;31.19;nan
62164;BME280;48149;51.132;7.178;2023-08-08T03:08:19;98496.81;;;30.79;nan
62164;BME280;48149;51.132;7.178;2023-08-08T03:10:45;98506.16;;;31.63;nan
62164;BME280;48149;51.132;7.178;2023-08-08T03:13:10;98505.44;;;31.66;nan
62164;BME280;48149;51.132;7.178;2023-08-08T03:15:36;98508.22;;;31.70;nan
62164;BME280;48149;51.132;7.178;2023-08-08T03:18:01;98497.28;;;32.62;nan
62164;BME280;48149;51.132;7.178;2023-08-08T03:20:27;98500.91;;;32.28;nan
62164;BME280;48149;51.132;7.178;2023-08-08T03:22:52;98496.22;;;32.90;nan
62164;BME280;48149;51.132;7.178;2023-08-08T03:25:18;98505.03;;;32.83;nan
62164;BME280;48149;51.132;7.178;2023-08-08T03:27:43;98496.69;;;32.72;nan
62164;BME280;48149;51.132;7.178;2023-08-08T03:30:09;98489.28;;;32.69;nan
62164;BME280;48149;51.132;7.178;2023-08-08T03:32:34;98496.56;;;31.85;nan
62164;BME280;48149;51.132;7.178;2023-08-08T03:35:00;98496.16;;;32.86;nan
62164;BME280;48149;51.132;7.178;2023-08-08T03:37:25;98503.06;;;33.55;nan
62164;BME280;48149;51.132;7.178;2023-08-08T03:39:50;98495.00;;;33.10;nan
62164;BME280;48149;51.132;7.178;2023-08-08T03:42:16;98504.25;;;32.41;nan
62164;BME280;48149;51.132;7.178;2023-08-08T03:44:41;98506.03;;;30.62;nan
62164;BME280;48149;51.132;7.178;2023-08-08T03:47:06;98495.16;;;30.03;nan
62164;BME280;48149;51.132;7.178;2023-08-08T03:49:32;98497.59;;;31.46;nan
62164;BME280;48149;51.132;7.178;2023-08-08T03:51:58;98503.75;;;33.00;nan
62164;BME280;48149;51.132;7.178;2023-08-08T03:54:23;98502.00;;;32.23;nan
62164;BME280;48149;51.132;7.178;2023-08-08T03:56:48;98504.69;;;32.43;nan
62164;BME280;48149;51.132;7.178;2023-08-08T03:59:14;98495.22;;;31.95;nan
62164;BME280;48149;51.132;7.178;2023-08-08T04:01:39;98494.25;;;32.87;nan
62164;BME280;48149;51.132;7.178;2023-08-08T04:04:05;98496.28;;;32.70;nan
62164;BME280;48149;51.132;7.178;2023-08-08T04:06:30;98493.28;;;32.34;nan
62164;BME280;48149;51.132;7.178;2023-08-08T04:08:56;98502.75;;;31.86;nan
62164;BME280;48149;51.132;7.178;2023-08-08T04:11:21;98505.03;;;32.03;nan
62164;BME280;48149;51.132;7.178;2023-08-08T04:13:47;98507.22;;;30.22;nan
62164;BME280;48149;51.132;7.178;2023-08-08T04:16:12;98511.72;;;31.20;nan
62164;BME280;48149;51.132;7.178;2023-08-08T04:18:37;98508.56;;;31.18;nan
62164;BME280;48149;51.132;7.178;2023-08-08T04:21:03;98505.09;;;32.87;nan
62164;BME280;48149;51.132;7.178;2023-08-08T04:23:29;98505.94;;;30.75;nan
62164;BME280;48149;51.132;7.178;2023-08-08T04:25:54;98498.19;;;30.89;nan
62164;BME280;48149;51.132;7.178;2023-08-08T04:28:20;98499.72;;;30.15;nan
62164;BME280;48149;51.132;7.178;2023-08-08T04:30:45;98497.38;;;31.35;nan
62164;BME280;48149;51.132;7.178;2023-08-08T04:33:11;98493.34;;;31.60;nan
62164;BME280;48149;51.132;7.178;2023-08-08T04:35:36;98494.34;;;30.90;nan
62164;BME280;48149;51.132;7.178;2023-08-08T04:38:02;98494.56;;;30.97;nan
62164;BME280;48149;51.132;7.178;2023-08-08T04:40:27;98495.75;;;32.42;nan
62164;BME280;48149;51.132;7.178;2023-08-08T04:42:53;98493.03;;;31.15;nan
62164;BME280;48149;51.132;7.178;2023-08-08T04:45:18;98490.88;;;32.70;nan
62164;BME280;48149;51.132;7.178;2023-08-08T04:47:44;98491.59;;;31.52;nan
62164;BME280;48149;51.132;7.178;2023-08-08T04:50:10;98495.91;;;30.91;nan
62164;BME280;48149;51.132;7.178;2023-08-08T04:52:35;98490.22;;;31.97;nan
62164;BME280;48149;51.132;7.178;2023-08-08T04:55:01;98490.47;;;31.53;nan
62164;BME280;48149;51.132;7.178;2023-08-08T04:57:26;98487.22;;;31.13;nan
62164;BME280;48149;51.132;7.178;2023-08-08T04:59:51;98487.81;;;31.22;nan
62164;BME280;48149;51.132;7.178;2023-08-08T05:02:17;98483.94;;;32.31;nan
62164;BME280;48149;51.132;7.178;2023-08-08T05:04:43;98483.19;;;32.11;nan
62164;BME280;48149;51.132;7.178;2023-08-08T05:07:08;98480.72;;;30.71;nan
62164;BME280;48149;51.132;7.178;2023-08-08T05:09:33;98479.31;;;31.24;nan
62164;BME280;48149;51.132;7.178;2023-08-08T05:11:59;98476.69;;;29.53;nan
62164;BME280;48149;51.132;7.178;2023-08-08T05:14:24;98471.47;;;31.34;nan
62164;BME280;48149;51.132;7.178;2023-08-08T05:16:49;98473.31;;;30.83;nan
62164;BME280;48149;51.132;7.178;2023-08-08T05:19:15;98461.66;;;30.63;nan
62164;BME280;48149;51.132;7.178;2023-08-08T05:21:40;98465.03;;;30.17;nan
62164;BME280;48149;51.132;7.178;2023-08-08T05:24:06;98468.53;;;29.38;nan
62164;BME280;48149;51.132;7.178;2023-08-08T05:26:31;98469.91;;;30.11;nan
62164;BME280;48149;51.132;7.178;2023-08-08T05:28:56;98465.41;;;29.11;nan
62164;BME280;48149;51.132;7.178;2023-08-08T05:31:22;98467.94;;;30.99;nan
62164;BME280;48149;51.132;7.178;2023-08-08T05:33:48;98471.72;;;31.45;nan
62164;BME280;48149;51.132;7.178;2023-08-08T05:36:14;98464.69;;;30.46;nan
62164;BME280;48149;51.132;7.178;2023-08-08T05:38:39;98468.97;;;31.60;nan
62164;BME280;48149;51.132;7.178;2023-08-08T05:41:06;98462.22;;;31.70;nan
62164;BME280;48149;51.132;7.178;2023-08-08T05:43:31;98465.81;;;30.45;nan
62164;BME280;48149;51.132;7.178;2023-08-08T05:45:56;98468.78;;;31.18;nan
62164;BME280;48149;51.132;7.178;2023-08-08T05:48:22;98462.97;;;30.70;nan
62164;BME280;48149;51.132;7.178;2023-08-08T05:50:47;98464.94;;;31.35;nan
62164;BME280;48149;51.132;7.178;2023-08-08T05:53:13;98479.25;;;29.74;nan
62164;BME280;48149;51.132;7.178;2023-08-08T05:55:40;98475.03;;;31.38;nan
62164;BME280;48149;51.132;7.178;2023-08-08T05:58:06;98475.72;;;31.00;nan
62164;BME280;48149;51.132;7.178;2023-08-08T06:00:31;98482.69;;;31.52;nan
62164;BME280;48149;51.132;7.178;2023-08-08T06:02:57;98483.09;;;33.14;nan
62164;BME280;48149;51.132;7.178;2023-08-08T06:05:22;98481.97;;;32.09;nan
62164;BME280;48149;51.132;7.178;2023-08-08T06:07:49;98479.78;;;30.79;nan
62164;BME280;48149;51.132;7.178;2023-08-08T06:10:14;98482.34;;;31.53;nan
62164;BME280;48149;51.132;7.178;2023-08-08T06:12:40;98486.13;;;30.86;nan
62164;BME280;48149;51.132;7.178;2023-08-08T06:15:06;98489.66;;;30.00;nan
62164;BME280;48149;51.132;7.178;2023-08-08T06:17:31;98480.47;;;30.32;nan
62164;BME280;48149;51.132;7.178;2023-08-08T06:19:56;98485.59;;;31.97;nan
62164;BME280;48149;51.132;7.178;2023-08-08T06:22:23;98492.38;;;31.53;nan
62164;BME280;48149;51.132;7.178;2023-08-08T06:24:48;98491.91;;;30.53;nan
62164;BME280;48149;51.132;7.178;2023-08-08T06:27:13;98492.84;;;31.55;nan
62164;BME280;48149;51.132;7.178;2023-08-08T06:29:39;98490.59;;;31.26;nan
62164;BME280;48149;51.132;7.178;2023-08-08T06:32:04;98500.38;;;31.65;nan
62164;BME280;48149;51.132;7.178;2023-08-08T06:34:30;98503.59;;;33.12;nan
62164;BME280;48149;51.132;7.178;2023-08-08T06:36:55;98502.56;;;31.09;nan
62164;BME280;48149;51.132;7.178;2023-08-08T06:39:20;98502.50;;;31.40;nan
62164;BME280;48149;51.132;7.178;2023-08-08T06:41:47;98499.28;;;32.65;nan
62164;BME280;48149;51.132;7.178;2023-08-08T06:44:12;98497.41;;;30.73;nan
62164;BME280;48149;51.132;7.178;2023-08-08T06:46:37;98492.53;;;30.35;nan
62164;BME280;48149;51.132;7.178;2023-08-08T06:49:03;98492.75;;;31.90;nan
62164;BME280;48149;51.132;7.178;2023-08-08T06:51:29;98490.63;;;32.56;nan
62164;BME280;48149;51.132;7.178;2023-08-08T06:53:55;98503.69;;;32.96;nan
62164;BME280;48149;51.132;7.178;2023-08-08T06:56:20;98501.66;;;31.20;nan
62164;BME280;48149;51.132;7.178;2023-08-08T06:58:46;98505.22;;;30.19;nan
62164;BME280;48149;51.132;7.178;2023-08-08T07:01:11;98494.94;;;31.30;nan
62164;BME280;48149;51.132;7.178;2023-08-08T07:03:37;98490.06;;;30.57;nan
62164;BME280;48149;51.132;7.178;2023-08-08T07:06:03;98498.34;;;32.35;nan
62164;BME280;48149;51.132;7.178;2023-08-08T07:08:28;98496.91;;;31.84;nan
62164;BME280;48149;51.132;7.178;2023-08-08T07:10:54;98492.03;;;32.08;nan
62164;BME280;48149;51.132;7.178;2023-08-08T07:13:20;98495.38;;;33.08;nan
62164;BME280;48149;51.132;7.178;2023-08-08T07:15:45;98489.91;;;30.66;nan
62164;BME280;48149;51.132;7.178;2023-08-08T07:18:10;98492.69;;;33.35;nan
62164;BME280;48149;51.132;7.178;2023-08-08T07:20:36;98484.63;;;32.47;nan
62164;BME280;48149;51.132;7.178;2023-08-08T07:23:01;98487.13;;;31.09;nan
62164;BME280;48149;51.132;7.178;2023-08-08T07:25:27;98485.69;;;32.20;nan
62164;BME280;48149;51.132;7.178;2023-08-08T07:27:52;98484.13;;;30.67;nan
62164;BME280;48149;51.132;7.178;2023-08-08T07:30:17;98485.09;;;30.59;nan
62164;BME280;48149;51.132;7.178;2023-08-08T07:32:43;98496.03;;;31.60;nan
62164;BME280;48149;51.132;7.178;2023-08-08T07:35:08;98484.78;;;31.43;nan
62164;BME280;48149;51.132;7.178;2023-08-08T07:37:34;98485.09;;;31.22;nan
62164;BME280;48149;51.132;7.178;2023-08-08T07:40:01;98487.00;;;29.88;nan
62164;BME280;48149;51.132;7.178;2023-08-08T07:42:26;98486.25;;;31.56;nan
62164;BME280;48149;51.132;7.178;2023-08-08T07:44:51;98480.38;;;32.69;nan
62164;BME280;48149;51.132;7.178;2023-08-08T07:47:17;98481.31;;;34.92;nan
62164;BME280;48149;51.132;7.178;2023-08-08T07:49:42;98481.63;;;32.52;nan
62164;BME280;48149;51.132;7.178;2023-08-08T07:52:07;98474.09;;;31.65;nan
62164;BME280;48149;51.132;7.178;2023-08-08T07:54:34;98477.53;;;30.96;nan
62164;BME280;48149;51.132;7.178;2023-08-08T07:56:59;98467.63;;;31.89;nan
62164;BME280;48149;51.132;7.178;2023-08-08T07:59:25;98469.84;;;32.22;nan
62164;BME280;48149;51.132;7.178;2023-08-08T08:01:50;98490.84;;;31.90;nan
62164;BME280;48149;51.132;7.178;2023-08-08T08:04:16;98477.63;;;32.23;nan
62164;BME280;48149;51.132;7.178;2023-08-08T08:06:41;98488.03;;;31.83;nan
62164;BME280;48149;51.132;7.178;2023-08-08T08:09:06;98483.63;;;30.62;nan
62164;BME280;48149;51.132;7.178;2023-08-08T08:11:33;98482.03;;;33.22;nan
62164;BME280;48149;51.132;7.178;2023-08-08T08:13:58;98481.59;;;32.71;nan
62164;BME280;48149;51.132;7.178;2023-08-08T08:16:23;98485.91;;;30.76;nan
62164;BME280;48149;51.132;7.178;2023-08-08T08:18:49;98478.63;;;31.27;nan
62164;BME280;48149;51.132;7.178;2023-08-08T08:21:14;98481.50;;;31.68;nan
62164;BME280;48149;51.132;7.178;2023-08-08T08:23:42;98473.56;;;31.25;nan
62164;BME280;48149;51.132;7.178;2023-08-08T08:26:07;98473.09;;;31.54;nan
62164;BME280;48149;51.132;7.178;2023-08-08T08:28:32;98477.25;;;30.54;nan
62164;BME280;48149;51.132;7.178;2023-08-08T08:31:04;98488.72;;;30.08;nan
62164;BME280;48149;51.132;7.178;2023-08-08T08:33:29;98488.97;;;29.39;nan
62164;BME280;48149;51.132;7.178;2023-08-08T08:35:54;98475.75;;;32.50;nan
62164;BME280;48149;51.132;7.178;2023-08-08T08:38:20;98474.28;;;31.22;nan
62164;BME280;48149;51.132;7.178;2023-08-08T08:40:46;98488.53;;;32.08;nan
62164;BME280;48149;51.132;7.178;2023-08-08T08:43:15;98481.28;;;31.07;nan
62164;BME280;48149;51.132;7.178;2023-08-08T08:45:43;98494.78;;;31.93;nan
62164;BME280;48149;51.132;7.178;2023-08-08T08:48:09;98477.31;;;33.19;nan
62164;BME280;48149;51.132;7.178;2023-08-08T08:50:38;98482.75;;;35.26;nan
62164;BME280;48149;51.132;7.178;2023-08-08T08:53:04;98483.31;;;34.58;nan
62164;BME280;48149;51.132;7.178;2023-08-08T08:55:30;98483.94;;;33.48;nan
62164;BME280;48149;51.132;7.178;2023-08-08T08:57:55;98480.28;;;31.31;nan
62164;BME280;48149;51.132;7.178;2023-08-08T09:00:21;98484.84;;;34.96;nan
62164;BME280;48149;51.132;7.178;2023-08-08T09:02:48;98487.66;;;33.10;nan
62164;BME280;48149;51.132;7.178;2023-08-08T09:05:14;98470.44;;;32.77;nan
62164;BME280;48149;51.132;7.178;2023-08-08T09:07:40;98480.03;;;32.70;nan
62164;BME280;48149;51.132;7.178;2023-08-08T09:10:06;98482.13;;;32.58;nan
62164;BME280;48149;51.132;7.178;2023-08-08T09:12:33;98474.22;;;31.53;nan
62164;BME280;48149;51.132;7.178;2023-08-08T09:14:59;98478.06;;;33.16;nan
62164;BME280;48149;51.132;7.178;2023-08-08T09:17:25;98479.28;;;34.78;nan
62164;BME280;48149;51.132;7.178;2023-08-08T09:19:53;98492.06;;;32.73;nan
62164;BME280;48149;51.132;7.178;2023-08-08T09:22:19;98483.72;;;32.01;nan
62164;BME280;48149;51.132;7.178;2023-08-08T09:24:45;98481.50;;;32.45;nan
62164;BME280;48149;51.132;7.178;2023-08-08T09:27:11;98479.13;;;33.35;nan
62164;BME280;48149;51.132;7.178;2023-08-08T09:29:37;98483.72;;;33.08;nan
62164;BME280;48149;51.132;7.178;2023-08-08T09:32:06;98491.00;;;33.53;nan
62164;BME280;48149;51.132;7.178;2023-08-08T09:34:32;98483.75;;;32.62;nan
62164;BME280;48149;51.132;7.178;2023-08-08T09:36:58;98485.59;;;32.81;nan
62164;BME280;48149;51.132;7.178;2023-08-08T09:39:24;98484.81;;;34.52;nan
62164;BME280;48149;51.132;7.178;2023-08-08T09:41:50;98485.16;;;31.41;nan
62164;BME280;48149;51.132;7.178;2023-08-08T09:44:15;98498.63;;;31.73;nan
62164;BME280;48149;51.132;7.178;2023-08-08T09:46:40;98501.00;;;34.38;nan
62164;BME280;48149;51.132;7.178;2023-08-08T09:49:06;98493.31;;;35.35;nan
62164;BME280;48149;51.132;7.178;2023-08-08T09:51:31;98494.25;;;34.25;nan
62164;BME280;48149;51.132;7.178;2023-08-08T09:53:59;98498.59;;;34.33;nan
62164;BME280;48149;51.132;7.178;2023-08-08T09:56:25;98499.09;;;34.79;nan
62164;BME280;48149;51.132;7.178;2023-08-08T09:58:52;98516.59;;;33.03;nan
62164;BME280;48149;51.132;7.178;2023-08-08T10:01:19;98496.97;;;35.06;nan
62164;BME280;48149;51.132;7.178;2023-08-08T10:03:45;98497.84;;;31.06;nan
62164;BME280;48149;51.132;7.178;2023-08-08T10:06:11;98493.53;;;33.12;nan
62164;BME280;48149;51.132;7.178;2023-08-08T10:08:37;98493.78;;;31.47;nan
62164;BME280;48149;51.132;7.178;2023-08-08T10:11:03;98490.69;;;32.60;nan
62164;BME280;48149;51.132;7.178;2023-08-08T10:13:30;98493.13;;;34.63;nan
62164;BME280;48149;51.132;7.178;2023-08-08T10:15:56;98486.59;;;34.01;nan
62164;BME280;48149;51.132;7.178;2023-08-08T10:18:22;98495.59;;;34.08;nan
62164;BME280;48149;51.132;7.178;2023-08-08T10:20:48;98498.41;;;34.52;nan
62164;BME280;48149;51.132;7.178;2023-08-08T10:23:16;98504.84;;;33.70;nan
62164;BME280;48149;51.132;7.178;2023-08-08T10:25:50;98495.69;;;36.19;nan
62164;BME280;48149;51.132;7.178;2023-08-08T10:28:18;98504.13;;;34.07;nan
62164;BME280;48149;51.132;7.178;2023-08-08T10:30:55;98515.13;;;34.91;nan
62164;BME280;48149;51.132;7.178;2023-08-08T10:33:26;98498.47;;;33.89;nan
62164;BME280;48149;51.132;7.178;2023-08-08T10:35:58;98508.63;;;35.06;nan
62164;BME280;48149;51.132;7.178;2023-08-08T10:38:25;98496.66;;;32.50;nan
62164;BME280;48149;51.132;7.178;2023-08-08T10:40:56;98513.41;;;31.59;nan
62164;BME280;48149;51.132;7.178;2023-08-08T10:43:29;98494.47;;;33.01;nan
62164;BME280;48149;51.132;7.178;2023-08-08T10:46:01;98503.56;;;34.61;nan
62164;BME280;48149;51.132;7.178;2023-08-08T10:48:27;98502.72;;;34.20;nan
62164;BME280;48149;51.132;7.178;2023-08-08T10:51:00;98501.66;;;33.65;nan
62164;BME280;48149;51.132;7.178;2023-08-08T10:53:27;98500.91;;;33.42;nan
62164;BME280;48149;51.132;7.178;2023-08-08T10:56:00;98495.97;;;34.07;nan
62164;BME280;48149;51.132;7.178;2023-08-08T10:58:41;98496.59;;;35.07;nan
62164;BME280;48149;51.132;7.178;2023-08-08T11:01:07;98497.28;;;32.62;nan
62164;BME280;48149;51.132;7.178;2023-08-08T11:03:37;98495.50;;;33.68;nan
62164;BME280;48149;51.132;7.178;2023-08-08T11:06:06;98492.31;;;35.61;nan
62164;BME280;48149;51.132;7.178;2023-08-08T11:08:32;98502.19;;;32.15;nan
62164;BME280;48149;51.132;7.178;2023-08-08T11:10:58;98493.44;;;30.98;nan
62164;BME280;48149;51.132;7.178;2023-08-08T11:13:24;98494.28;;;33.13;nan
62164;BME280;48149;51.132;7.178;2023-08-08T11:15:49;98504.03;;;34.33;nan
62164;BME280;48149;51.132;7.178;2023-08-08T11:18:16;98500.19;;;35.18;nan
62164;BME280;48149;51.132;7.178;2023-08-08T11:20:41;98499.41;;;34.34;nan
62164;BME280;48149;51.132;7.178;2023-08-08T11:23:08;98503.75;;;34.08;nan
62164;BME280;48149;51.132;7.178;2023-08-08T11:25:36;98493.22;;;35.17;nan
62164;BME280;48149;51.132;7.178;2023-08-08T11:28:02;98498.03;;;34.50;nan
62164;BME280;48149;51.132;7.178;2023-08-08T11:30:30;98492.28;;;36.79;nan
62164;BME280;48149;51.132;7.178;2023-08-08T11:32:57;98499.50;;;34.44;nan
62164;BME280;48149;51.132;7.178;2023-08-08T11:35:24;98492.13;;;37.88;nan
62164;BME280;48149;51.132;7.178;2023-08-08T11:37:52;98489.72;;;35.89;nan
62164;BME280;48149;51.132;7.178;2023-08-08T11:40:19;98487.59;;;36.55;nan
62164;BME280;48149;51.132;7.178;2023-08-08T11:42:45;98487.19;;;37.37;nan
62164;BME280;48149;51.132;7.178;2023-08-08T11:45:12;98473.56;;;36.56;nan
62164;BME280;48149;51.132;7.178;2023-08-08T11:47:39;98474.44;;;35.09;nan
62164;BME280;48149;51.132;7.178;2023-08-08T11:50:06;98470.06;;;36.66;nan
62164;BME280;48149;51.132;7.178;2023-08-08T11:52:32;98473.94;;;38.40;nan
62164;BME280;48149;51.132;7.178;2023-08-08T11:55:01;98473.88;;;36.09;nan
62164;BME280;48149;51.132;7.178;2023-08-08T11:57:27;98482.47;;;33.81;nan
62164;BME280;48149;51.132;7.178;2023-08-08T11:59:55;98479.19;;;32.66;nan
62164;BME280;48149;51.132;7.178;2023-08-08T12:02:22;98477.34;;;31.05;nan
62164;BME280;48149;51.132;7.178;2023-08-08T12:04:48;98466.66;;;31.28;nan
62164;BME280;48149;51.132;7.178;2023-08-08T12:07:14;98487.16;;;33.84;nan
62164;BME280;48149;51.132;7.178;2023-08-08T12:09:39;98488.69;;;32.80;nan
62164;BME280;48149;51.132;7.178;2023-08-08T12:12:06;98469.66;;;30.44;nan
62164;BME280;48149;51.132;7.178;2023-08-08T12:14:38;98476.63;;;30.77;nan
62164;BME280;48149;51.132;7.178;2023-08-08T12:17:04;98481.81;;;30.10;nan
62164;BME280;48149;51.132;7.178;2023-08-08T12:19:29;98484.22;;;30.55;nan
62164;BME280;48149;51.132;7.178;2023-08-08T12:21:55;98484.22;;;31.68;nan
62164;BME280;48149;51.132;7.178;2023-08-08T12:24:20;98475.91;;;31.42;nan
62164;BME280;48149;51.132;7.178;2023-08-08T12:26:46;98477.78;;;31.23;nan
62164;BME280;48149;51.132;7.178;2023-08-08T12:29:15;98488.72;;;31.61;nan
62164;BME280;48149;51.132;7.178;2023-08-08T12:31:40;98490.78;;;31.87;nan
62164;BME280;48149;51.132;7.178;2023-08-08T12:34:06;98491.84;;;32.59;nan
62164;BME280;48149;51.132;7.178;2023-08-08T12:36:31;98492.31;;;31.49;nan
62164;BME280;48149;51.132;7.178;2023-08-08T12:38:56;98497.38;;;30.41;nan
62164;BME280;48149;51.132;7.178;2023-08-08T12:41:25;98501.13;;;30.68;nan
62164;BME280;48149;51.132;7.178;2023-08-08T12:43:51;98506.00;;;31.41;nan
62164;BME280;48149;51.132;7.178;2023-08-08T12:46:17;98512.06;;;29.88;nan
62164;BME280;48149;51.132;7.178;2023-08-08T12:48:42;98514.84;;;28.58;nan
62164;BME280;48149;51.132;7.178;2023-08-08T12:51:09;98512.09;;;30.16;nan
62164;BME280;48149;51.132;7.178;2023-08-08T12:53:34;98515.66;;;31.23;nan
62164;BME280;48149;51.132;7.178;2023-08-08T12:56:00;98518.31;;;29.40;nan
62164;BME280;48149;51.132;7.178;2023-08-08T12:58:25;98507.38;;;31.00;nan
62164;BME280;48149;51.132;7.178;2023-08-08T13:00:51;98508.59;;;29.63;nan
62164;BME280;48149;51.132;7.178;2023-08-08T13:03:16;98500.53;;;30.75;nan
62164;BME280;48149;51.132;7.178;2023-08-08T13:05:42;98499.56;;;31.45;nan
62164;BME280;48149;51.132;7.178;2023-08-08T13:08:07;98498.94;;;32.90;nan
62164;BME280;48149;51.132;7.178;2023-08-08T13:10:33;98504.88;;;31.42;nan
62164;BME280;48149;51.132;7.178;2023-08-08T13:12:58;98504.16;;;32.56;nan
62164;BME280;48149;51.132;7.178;2023-08-08T13:15:24;98505.91;;;32.91;nan
62164;BME280;48149;51.132;7.178;2023-08-08T13:17:49;98495.50;;;33.15;nan